Main page
METAR-TAF:

METAR-TAF

Airports :

Zagreb Airport

Zagreb, Croatia

latitude: 45-44N, longitude: 016-04E, elevation: 106 m

Current weather observation

The report was made 21 minutes ago, at 05:00 UTC
Wind 2 kt from variable directions
Temperature 6°C
Humidity 87%
Pressure 1028 hPa
Visibility 10 km or more
no clouds below 1500 m and no cumulonimbus

METAR: LDZA 200500Z VRB02KT CAVOK 06/04 Q1028 NOSIG

Time: 07:21 (05:21 UTC)

Forecast

The report was made 5 hours and 56 minutes ago, at 23:25 UTC
Forecast valid from 20 at 00 UTC to 21 at 00 UTC
Wind 2 kt from variable directions
Visibility 10 km or more
no clouds below 1500 m and no cumulonimbus
Probability 40% :
Temporary
from 20 at 03 UTC to 20 at 16 UTC
Wind 8 kt from the Northeast

TAF: LDZA 192325Z 2000/2100 VRB02KT CAVOK TX21/2014Z TN05/2006Z PROB40 TEMPO 2003/2016 05008KT

Weather observations and forecasts of more than 4000 airports (METAR and TAF reports).

The available stations are represented by yellow and red dots on the map.

Hover mouse over dot to see the name of the station.

Then click to see weather observations and forecasts.

To change the map : click on the green buttons with a black cross to zoom in, on the green button with a dash to zoom out, or on the green arrows for adjacent maps.


METAR-TAF: